Time;durP1;ratioP1;P1;durP2;ratioP2;P2;SDS_P1;SDS_P2;PMS_P1;PMS_P2;Temp;Humidity;BMP_temperature;BMP_pressure;BME280_temperature;BME280_humidity;BME280_pressure;Samples;Min_cycle;Max_cycle;Signal;HPM_P1;HPM_P2
2022/07/27 00:00:15;;;;;;;4.95;2.20;;;;;;;;;;5032820;28;20492;-71
2022/07/27 00:02:40;;;;;;;6.72;2.05;;;;;;;;;;5030610;28;20096;-70
2022/07/27 00:05:06;;;;;;;6.47;2.28;;;;;;;;;;5033081;28;20026;-71
2022/07/27 00:07:31;;;;;;;6.43;2.25;;;;;;;;;;5032063;28;20140;-71
2022/07/27 00:09:56;;;;;;;4.22;2.15;;;;;;;;;;5031246;28;20090;-71
2022/07/27 00:12:22;;;;;;;7.28;2.10;;;;;;;;;;5032755;28;20464;-70
2022/07/27 00:14:47;;;;;;;6.55;2.30;;;;;;;;;;5032960;28;20060;-71
2022/07/27 00:17:12;;;;;;;6.70;1.85;;;;;;;;;;5032936;28;20075;-70
2022/07/27 00:19:38;;;;;;;7.60;2.03;;;;;;;;;;5030115;28;20028;-70
2022/07/27 00:22:03;;;;;;;8.27;2.20;;;;;;;;;;5026992;28;20029;-71
2022/07/27 00:24:28;;;;;;;8.30;2.40;;;;;;;;;;5022988;28;20040;-70
2022/07/27 00:26:53;;;;;;;8.73;2.38;;;;;;;;;;5026297;28;20048;-71
2022/07/27 00:29:19;;;;;;;9.13;2.63;;;;;;;;;;5032758;28;20037;-71
2022/07/27 00:31:44;;;;;;;12.20;2.42;;;;;;;;;;5032372;28;20038;-71
2022/07/27 00:34:09;;;;;;;5.38;2.42;;;;;;;;;;5032603;28;20096;-70
2022/07/27 00:36:35;;;;;;;5.68;1.80;;;;;;;;;;5029740;28;20033;-70
2022/07/27 00:39:00;;;;;;;5.88;2.13;;;;;;;;;;5032854;28;20052;-70
2022/07/27 00:41:25;;;;;;;5.63;2.22;;;;;;;;;;5033175;28;20029;-70
2022/07/27 00:43:51;;;;;;;9.45;2.15;;;;;;;;;;5032789;28;20030;-70
2022/07/27 00:46:17;;;;;;;5.03;2.03;;;;;;;;;;5032492;28;20128;-71
2022/07/27 00:48:42;;;;;;;7.63;2.42;;;;;;;;;;5033076;28;20041;-70
2022/07/27 00:51:07;;;;;;;6.25;2.08;;;;;;;;;;5032743;28;20037;-71
2022/07/27 00:53:33;;;;;;;9.50;2.67;;;;;;;;;;5033092;28;20052;-70
2022/07/27 00:55:58;;;;;;;11.73;2.78;;;;;;;;;;5032448;28;20416;-70
2022/07/27 00:58:24;;;;;;;9.77;2.30;;;;;;;;;;5032990;28;20069;-70
2022/07/27 01:00:49;;;;;;;12.60;2.72;;;;;;;;;;5032286;28;20478;-70
2022/07/27 01:03:15;;;;;;;6.65;2.10;;;;;;;;;;5033168;28;20020;-71
2022/07/27 01:05:40;;;;;;;6.97;1.95;;;;;;;;;;5029005;28;20053;-70
2022/07/27 01:08:06;;;;;;;6.18;2.67;;;;;;;;;;5033054;28;20105;-71
2022/07/27 01:10:32;;;;;;;5.40;2.05;;;;;;;;;;5034372;28;20086;-70
2022/07/27 01:12:58;;;;;;;7.15;2.03;;;;;;;;;;5032414;28;20033;-70
2022/07/27 01:15:24;;;;;;;4.72;1.92;;;;;;;;;;5032206;28;20082;-70
2022/07/27 01:17:49;;;;;;;6.63;2.20;;;;;;;;;;5032544;28;20022;-70
2022/07/27 01:20:14;;;;;;;6.40;1.85;;;;;;;;;;5032499;28;20120;-70
2022/07/27 01:22:39;;;;;;;8.00;2.53;;;;;;;;;;5032609;28;20019;-70
2022/07/27 01:25:05;;;;;;;6.72;2.03;;;;;;;;;;5032432;28;20018;-70
2022/07/27 01:27:30;;;;;;;6.15;2.58;;;;;;;;;;5032357;28;20685;-70
2022/07/27 01:29:56;;;;;;;8.18;2.08;;;;;;;;;;5031496;28;20025;-70
2022/07/27 01:32:21;;;;;;;6.55;2.30;;;;;;;;;;5032425;28;20088;-71
2022/07/27 01:34:46;;;;;;;8.95;2.85;;;;;;;;;;5032261;28;20029;-71
2022/07/27 01:37:11;;;;;;;5.05;2.40;;;;;;;;;;5032116;28;20013;-70
2022/07/27 01:39:37;;;;;;;5.72;1.95;;;;;;;;;;5032250;28;20067;-70
2022/07/27 01:42:03;;;;;;;5.18;2.20;;;;;;;;;;5032780;28;20037;-70
2022/07/27 01:44:28;;;;;;;6.90;2.38;;;;;;;;;;5027910;28;20021;-70
2022/07/27 01:46:54;;;;;;;4.60;1.83;;;;;;;;;;5027861;28;20018;-71
2022/07/27 01:49:19;;;;;;;7.50;2.10;;;;;;;;;;5034209;28;20389;-70
2022/07/27 01:51:44;;;;;;;6.18;2.65;;;;;;;;;;5035837;28;20029;-70
2022/07/27 01:54:10;;;;;;;6.07;2.45;;;;;;;;;;5035783;28;20018;-70
2022/07/27 01:56:35;;;;;;;9.20;2.40;;;;;;;;;;5036124;28;20410;-70
2022/07/27 01:59:00;;;;;;;6.57;2.40;;;;;;;;;;5035476;28;20053;-70
2022/07/27 02:01:26;;;;;;;9.68;2.05;;;;;;;;;;5035223;28;20052;-70
2022/07/27 02:03:51;;;;;;;4.72;2.15;;;;;;;;;;5035781;28;20033;-70
2022/07/27 02:06:16;;;;;;;5.68;2.40;;;;;;;;;;5035427;28;20060;-71
2022/07/27 02:08:41;;;;;;;13.23;2.42;;;;;;;;;;5035681;28;20024;-70
2022/07/27 02:13:50;;;;;;;3.70;1.92;;;;;;;;;;5026740;28;20056;-70
2022/07/27 02:16:16;;;;;;;7.47;2.47;;;;;;;;;;5033083;28;20033;-70
2022/07/27 02:18:42;;;;;;;3.40;1.95;;;;;;;;;;5035287;28;20100;-70
2022/07/27 02:21:09;;;;;;;4.38;1.88;;;;;;;;;;5035108;28;20033;-70
2022/07/27 02:23:35;;;;;;;8.65;2.30;;;;;;;;;;5035027;28;20033;-70
2022/07/27 02:26:01;;;;;;;6.00;2.10;;;;;;;;;;5035076;28;20022;-70
2022/07/27 02:28:26;;;;;;;7.75;1.65;;;;;;;;;;5034547;28;20025;-69
2022/07/27 02:30:51;;;;;;;6.35;2.17;;;;;;;;;;5032071;28;20033;-70
2022/07/27 02:33:16;;;;;;;7.35;2.47;;;;;;;;;;5034360;28;20430;-70
2022/07/27 02:35:42;;;;;;;7.03;2.38;;;;;;;;;;5035185;28;20017;-70
2022/07/27 02:38:07;;;;;;;5.03;2.38;;;;;;;;;;5017618;28;20513;-70
2022/07/27 02:40:32;;;;;;;13.75;2.28;;;;;;;;;;5034696;28;20468;-70
2022/07/27 02:42:58;;;;;;;13.35;2.42;;;;;;;;;;5035099;28;20100;-70
2022/07/27 02:45:23;;;;;;;13.25;2.75;;;;;;;;;;5034269;28;20033;-70
2022/07/27 02:47:48;;;;;;;6.53;2.22;;;;;;;;;;5035154;28;20151;-70
2022/07/27 02:50:14;;;;;;;6.57;2.45;;;;;;;;;;5032134;28;20025;-71
2022/07/27 02:52:39;;;;;;;5.18;2.25;;;;;;;;;;5034981;28;20069;-70
2022/07/27 02:55:05;;;;;;;9.80;2.35;;;;;;;;;;5032375;28;20014;-70
2022/07/27 02:57:33;;;;;;;7.65;2.38;;;;;;;;;;5034905;28;20076;-70
2022/07/27 02:59:58;;;;;;;7.35;2.50;;;;;;;;;;5031172;28;20037;-70
2022/07/27 03:02:23;;;;;;;9.48;2.63;;;;;;;;;;5034663;28;20030;-70
2022/07/27 03:04:49;;;;;;;11.40;2.78;;;;;;;;;;5031976;28;20376;-71
2022/07/27 03:07:14;;;;;;;7.30;2.40;;;;;;;;;;5034570;28;20029;-70
2022/07/27 03:09:39;;;;;;;5.90;2.35;;;;;;;;;;5034310;28;20012;-70
2022/07/27 03:12:05;;;;;;;3.45;1.92;;;;;;;;;;5039351;28;20460;-70
2022/07/27 03:14:30;;;;;;;5.28;2.47;;;;;;;;;;5033884;28;20117;-70
2022/07/27 03:16:55;;;;;;;6.97;2.13;;;;;;;;;;5034492;28;20022;-70
2022/07/27 03:19:21;;;;;;;10.05;2.35;;;;;;;;;;5033759;28;20503;-70
2022/07/27 03:21:46;;;;;;;4.90;2.22;;;;;;;;;;5034544;28;20124;-70
2022/07/27 03:24:11;;;;;;;4.95;2.08;;;;;;;;;;5034144;28;20240;-71
2022/07/27 03:26:36;;;;;;;4.22;2.10;;;;;;;;;;5034365;28;20013;-70
2022/07/27 03:29:02;;;;;;;9.00;2.25;;;;;;;;;;5033414;28;20041;-69
2022/07/27 03:31:27;;;;;;;5.47;2.17;;;;;;;;;;5033805;28;20067;-70
2022/07/27 03:33:52;;;;;;;10.73;2.47;;;;;;;;;;5034102;28;20453;-70
2022/07/27 03:36:17;;;;;;;8.18;2.58;;;;;;;;;;5032550;28;20029;-70
2022/07/27 03:38:43;;;;;;;5.88;2.22;;;;;;;;;;5034355;28;20361;-70
2022/07/27 03:41:08;;;;;;;11.18;2.05;;;;;;;;;;5029225;28;20081;-70
2022/07/27 03:43:34;;;;;;;5.75;1.88;;;;;;;;;;5033607;28;20025;-70
2022/07/27 03:45:59;;;;;;;7.00;2.50;;;;;;;;;;5033427;28;20108;-70
2022/07/27 03:48:26;;;;;;;8.50;2.00;;;;;;;;;;5034077;28;20528;-70
2022/07/27 03:50:51;;;;;;;11.30;2.28;;;;;;;;;;5032961;28;20389;-70
2022/07/27 03:53:16;;;;;;;6.85;1.98;;;;;;;;;;5034059;28;20044;-70
2022/07/27 03:55:42;;;;;;;7.13;2.63;;;;;;;;;;5033391;28;20375;-70
2022/07/27 03:58:07;;;;;;;6.43;2.58;;;;;;;;;;5033468;28;20468;-70
2022/07/27 04:00:32;;;;;;;12.55;2.35;;;;;;;;;;5032931;28;20434;-70
2022/07/27 04:02:58;;;;;;;4.47;2.22;;;;;;;;;;5034169;28;20013;-70
2022/07/27 04:05:23;;;;;;;6.00;2.13;;;;;;;;;;5033376;28;20144;-70
2022/07/27 04:07:48;;;;;;;5.35;2.15;;;;;;;;;;5033635;28;20021;-70
2022/07/27 04:10:14;;;;;;;11.10;2.35;;;;;;;;;;5033287;28;20041;-70
2022/07/27 04:12:39;;;;;;;8.50;2.08;;;;;;;;;;5038931;28;20080;-70
2022/07/27 04:15:05;;;;;;;7.43;2.38;;;;;;;;;;5032438;28;20076;-69
2022/07/27 04:17:31;;;;;;;8.10;2.53;;;;;;;;;;5033089;28;20476;-70
2022/07/27 04:19:56;;;;;;;11.40;2.25;;;;;;;;;;5032589;28;20026;-70
2022/07/27 04:22:21;;;;;;;9.02;2.40;;;;;;;;;;5033186;28;20041;-70
2022/07/27 04:24:47;;;;;;;8.18;2.28;;;;;;;;;;5029274;28;20013;-70
2022/07/27 04:27:12;;;;;;;12.45;2.20;;;;;;;;;;5031127;28;20036;-70
2022/07/27 04:29:37;;;;;;;6.28;2.15;;;;;;;;;;5032523;28;20037;-70
2022/07/27 04:32:02;;;;;;;6.70;2.45;;;;;;;;;;5032949;28;20024;-70
2022/07/27 04:34:28;;;;;;;7.07;2.47;;;;;;;;;;5032053;28;20079;-70
2022/07/27 04:36:53;;;;;;;6.43;2.00;;;;;;;;;;5033268;28;20021;-70
2022/07/27 04:39:19;;;;;;;8.80;1.85;;;;;;;;;;5032720;28;20447;-70
2022/07/27 04:41:44;;;;;;;5.40;1.90;;;;;;;;;;5032890;28;20039;-70
2022/07/27 04:44:09;;;;;;;9.00;2.67;;;;;;;;;;5032390;28;20013;-70
2022/07/27 04:46:35;;;;;;;5.35;2.67;;;;;;;;;;5032821;28;20048;-70
2022/07/27 04:49:00;;;;;;;10.15;2.25;;;;;;;;;;5032830;28;20808;-70
2022/07/27 04:51:25;;;;;;;7.05;2.03;;;;;;;;;;5032870;28;20453;-70
2022/07/27 04:53:51;;;;;;;4.85;1.88;;;;;;;;;;5033147;28;20037;-70
2022/07/27 04:56:16;;;;;;;6.18;2.38;;;;;;;;;;5032665;28;20034;-70
2022/07/27 04:58:41;;;;;;;7.80;1.80;;;;;;;;;;5032324;28;20057;-69
2022/07/27 05:01:09;;;;;;;5.90;1.85;;;;;;;;;;5031584;28;20068;-70
2022/07/27 05:03:34;;;;;;;7.30;1.67;;;;;;;;;;5032802;28;20029;-70
2022/07/27 05:06:00;;;;;;;8.63;1.92;;;;;;;;;;5030466;28;20418;-70
2022/07/27 05:08:25;;;;;;;5.68;1.77;;;;;;;;;;5033016;28;20129;-70
2022/07/27 05:10:50;;;;;;;6.10;1.83;;;;;;;;;;5030079;28;20022;-70
2022/07/27 05:13:16;;;;;;;5.13;1.67;;;;;;;;;;5032370;28;20429;-70
2022/07/27 05:15:41;;;;;;;5.43;1.60;;;;;;;;;;5032644;28;20018;-70
2022/07/27 05:18:07;;;;;;;4.75;1.30;;;;;;;;;;5032597;28;20416;-70
2022/07/27 05:20:32;;;;;;;6.25;1.83;;;;;;;;;;5031675;28;20057;-70
2022/07/27 05:22:58;;;;;;;3.95;1.30;;;;;;;;;;5034605;28;20091;-70
2022/07/27 05:25:24;;;;;;;5.55;1.45;;;;;;;;;;5036603;28;20055;-71
2022/07/27 05:27:50;;;;;;;3.60;1.30;;;;;;;;;;5036405;28;20063;-70
2022/07/27 05:30:15;;;;;;;2.13;1.10;;;;;;;;;;5035279;28;20539;-71
2022/07/27 05:32:41;;;;;;;7.28;1.40;;;;;;;;;;5035125;28;20108;-70
2022/07/27 05:35:06;;;;;;;3.92;1.20;;;;;;;;;;5035900;28;20026;-70
2022/07/27 05:37:32;;;;;;;4.50;1.10;;;;;;;;;;5036631;28;20104;-70
2022/07/27 05:39:57;;;;;;;2.60;1.13;;;;;;;;;;5035902;28;20068;-71
2022/07/27 05:42:22;;;;;;;3.33;1.10;;;;;;;;;;5036630;28;20469;-71
2022/07/27 05:44:52;;;;;;;4.40;1.20;;;;;;;;;;5033244;28;20026;-71
2022/07/27 05:47:17;;;;;;;5.25;1.30;;;;;;;;;;5034728;28;20037;-71
2022/07/27 05:49:42;;;;;;;4.63;1.10;;;;;;;;;;5035589;28;20029;-70
2022/07/27 05:52:07;;;;;;;3.90;1.13;;;;;;;;;;5036251;28;20017;-70
2022/07/27 05:54:33;;;;;;;3.20;1.17;;;;;;;;;;5032002;28;20101;-70
2022/07/27 05:56:58;;;;;;;3.67;1.38;;;;;;;;;;5031753;28;20071;-71
2022/07/27 05:59:23;;;;;;;3.70;1.20;;;;;;;;;;5035045;28;20032;-71
2022/07/27 06:01:48;;;;;;;2.92;1.23;;;;;;;;;;5027789;28;20037;-70
2022/07/27 06:04:14;;;;;;;2.28;1.10;;;;;;;;;;5035943;28;20029;-70
2022/07/27 06:09:24;;;;;;;4.07;1.20;;;;;;;;;;5030082;28;20048;-71
2022/07/27 06:11:50;;;;;;;2.83;1.02;;;;;;;;;;5047636;28;20384;-71
2022/07/27 06:14:15;;;;;;;2.63;1.17;;;;;;;;;;5035191;28;20049;-71
2022/07/27 06:16:40;;;;;;;4.60;1.05;;;;;;;;;;5034819;28;20021;-72
2022/07/27 06:19:06;;;;;;;2.40;1.00;;;;;;;;;;5034638;28;20079;-71
2022/07/27 06:21:31;;;;;;;2.83;1.00;;;;;;;;;;5034316;28;20093;-72
2022/07/27 06:23:56;;;;;;;2.35;1.10;;;;;;;;;;5035045;28;20017;-72
2022/07/27 06:26:22;;;;;;;2.88;0.98;;;;;;;;;;5033912;28;20021;-72
2022/07/27 06:28:47;;;;;;;6.82;1.50;;;;;;;;;;5035322;28;20103;-72
2022/07/27 06:31:12;;;;;;;4.05;1.00;;;;;;;;;;5035429;28;20028;-73
2022/07/27 06:33:38;;;;;;;3.35;0.90;;;;;;;;;;5035163;28;20526;-72
2022/07/27 06:36:04;;;;;;;2.50;0.80;;;;;;;;;;5035196;28;20083;-71
2022/07/27 06:38:30;;;;;;;3.85;0.90;;;;;;;;;;5035323;28;20104;-71
2022/07/27 06:40:55;;;;;;;2.65;1.00;;;;;;;;;;5035410;28;20527;-72
2022/07/27 06:43:25;;;;;;;2.58;1.08;;;;;;;;;;5034990;28;20037;-71
2022/07/27 06:45:50;;;;;;;2.13;0.90;;;;;;;;;;5033463;28;20464;-72
2022/07/27 06:48:16;;;;;;;2.83;0.90;;;;;;;;;;5033972;28;20056;-71
2022/07/27 06:50:41;;;;;;;3.38;0.85;;;;;;;;;;5033746;28;20113;-72
2022/07/27 06:53:06;;;;;;;1.45;0.95;;;;;;;;;;5032810;28;20491;-71
2022/07/27 06:55:32;;;;;;;3.30;1.20;;;;;;;;;;5034853;28;20009;-72
2022/07/27 06:57:57;;;;;;;4.50;1.30;;;;;;;;;;5034865;28;20041;-72
2022/07/27 07:00:22;;;;;;;3.42;1.05;;;;;;;;;;5017112;28;20036;-72
2022/07/27 07:02:55;;;;;;;4.57;1.30;;;;;;;;;;5034892;28;20083;-72
2022/07/27 07:05:21;;;;;;;;;;;;;;;;;;5030240;28;20034;-73
2022/07/27 07:07:47;;;;;;;3.42;1.30;;;;;;;;;;5028288;28;19913;-73
2022/07/27 07:10:12;;;;;;;3.13;1.15;;;;;;;;;;5017040;28;20034;-73
2022/07/27 07:12:38;;;;;;;3.72;1.15;;;;;;;;;;5019590;28;20044;-71
2022/07/27 07:15:04;;;;;;;4.90;1.35;;;;;;;;;;5020084;28;20063;-72
2022/07/27 07:17:29;;;;;;;4.82;1.50;;;;;;;;;;5030640;28;20025;-72
2022/07/27 07:19:54;;;;;;;3.78;1.45;;;;;;;;;;5030875;28;20113;-72
2022/07/27 07:22:20;;;;;;;3.42;1.25;;;;;;;;;;5031620;28;20025;-72
2022/07/27 07:24:45;;;;;;;6.18;1.67;;;;;;;;;;5032106;28;20512;-72
2022/07/27 07:27:10;;;;;;;7.55;1.60;;;;;;;;;;5031298;28;20037;-71
2022/07/27 07:29:36;;;;;;;5.72;1.60;;;;;;;;;;5031494;28;20026;-72
2022/07/27 07:32:01;;;;;;;6.25;1.58;;;;;;;;;;5020778;28;20065;-72
2022/07/27 07:34:28;;;;;;;5.85;2.70;;;;;;;;;;5029091;28;20041;-72
2022/07/27 07:36:53;;;;;;;8.65;2.60;;;;;;;;;;5025920;28;20109;-72
2022/07/27 07:39:18;;;;;;;7.80;2.35;;;;;;;;;;5030793;28;20433;-71
2022/07/27 07:41:44;;;;;;;5.78;2.30;;;;;;;;;;5030771;28;20037;-71
2022/07/27 07:44:09;;;;;;;5.28;1.92;;;;;;;;;;5028524;28;20029;-71
2022/07/27 07:46:35;;;;;;;7.70;2.60;;;;;;;;;;5029479;28;20022;-71
2022/07/27 07:49:01;;;;;;;9.38;2.80;;;;;;;;;;5029454;28;20087;-72
2022/07/27 07:51:26;;;;;;;7.53;2.65;;;;;;;;;;5030355;28;20033;-71
2022/07/27 07:53:51;;;;;;;9.50;2.67;;;;;;;;;;5030248;28;20416;-71
2022/07/27 07:56:17;;;;;;;9.82;2.72;;;;;;;;;;5030174;28;20278;-72
2022/07/27 07:58:42;;;;;;;5.72;2.28;;;;;;;;;;5030159;28;20146;-71
2022/07/27 08:01:07;;;;;;;6.68;2.45;;;;;;;;;;5030613;28;20045;-71
2022/07/27 08:03:33;;;;;;;8.88;2.70;;;;;;;;;;5030523;28;20029;-70
2022/07/27 08:05:58;;;;;;;10.85;2.80;;;;;;;;;;5020526;28;20017;-71
2022/07/27 08:08:24;;;;;;;10.65;2.63;;;;;;;;;;5017858;28;20029;-71
2022/07/27 08:10:49;;;;;;;5.55;2.15;;;;;;;;;;5010037;28;20063;-71
2022/07/27 08:13:15;;;;;;;7.47;2.33;;;;;;;;;;5027234;28;20713;-71
2022/07/27 08:15:40;;;;;;;6.35;2.40;;;;;;;;;;5027162;28;20020;-70
2022/07/27 08:18:06;;;;;;;6.43;2.25;;;;;;;;;;5027237;28;20116;-70
2022/07/27 08:20:31;;;;;;;9.48;3.03;;;;;;;;;;5027744;28;20028;-71
2022/07/27 08:22:57;;;;;;;11.60;3.15;;;;;;;;;;5027822;28;20021;-71
2022/07/27 08:25:22;;;;;;;6.72;3.17;;;;;;;;;;5029098;28;20037;-70
2022/07/27 08:27:47;;;;;;;11.82;3.92;;;;;;;;;;5027484;28;20021;-71
2022/07/27 08:30:12;;;;;;;8.73;3.53;;;;;;;;;;5029431;28;20104;-70
2022/07/27 08:32:51;;;;;;;9.73;4.10;;;;;;;;;;5029815;28;20052;-71
2022/07/27 08:35:18;;;;;;;13.18;3.60;;;;;;;;;;5025027;28;20076;-71
2022/07/27 08:37:43;;;;;;;10.68;4.40;;;;;;;;;;5024050;28;20120;-71
2022/07/27 08:40:09;;;;;;;11.43;4.45;;;;;;;;;;5027467;28;20112;-71
2022/07/27 08:42:34;;;;;;;15.07;4.80;;;;;;;;;;5029520;28;20018;-71
2022/07/27 08:44:59;;;;;;;9.63;4.35;;;;;;;;;;5023100;28;20455;-72
2022/07/27 08:47:26;;;;;;;13.23;5.45;;;;;;;;;;5027266;28;20031;-71
2022/07/27 08:49:51;;;;;;;12.18;5.00;;;;;;;;;;5030668;28;20053;-71
2022/07/27 08:52:17;;;;;;;16.63;5.53;;;;;;;;;;5029123;28;20069;-71
2022/07/27 08:54:42;;;;;;;17.60;5.57;;;;;;;;;;5028416;28;20022;-71
2022/07/27 08:57:08;;;;;;;18.55;5.95;;;;;;;;;;5023368;28;20053;-72
2022/07/27 08:59:33;;;;;;;16.38;5.18;;;;;;;;;;5029456;28;20035;-71
2022/07/27 09:01:59;;;;;;;17.13;6.55;;;;;;;;;;5031793;28;20028;-71
2022/07/27 09:04:25;;;;;;;20.65;7.00;;;;;;;;;;5024196;28;20101;-71
2022/07/27 09:06:50;;;;;;;19.27;6.72;;;;;;;;;;5032364;28;20026;-71
2022/07/27 09:09:19;;;;;;;14.05;6.28;;;;;;;;;;5028207;28;20052;-71
2022/07/27 09:12:03;;;;;;;17.55;6.25;;;;;;;;;;5024857;28;20132;-71
2022/07/27 09:14:32;;;;;;;18.65;5.95;;;;;;;;;;4982807;28;1164203;-70
2022/07/27 09:16:57;;;;;;;19.73;6.15;;;;;;;;;;5029496;28;20124;-70
2022/07/27 09:19:22;;;;;;;16.88;5.93;;;;;;;;;;5028928;28;20093;-71
2022/07/27 09:21:48;;;;;;;12.90;5.88;;;;;;;;;;5033341;28;20071;-71
2022/07/27 09:24:14;;;;;;;16.60;5.72;;;;;;;;;;5033356;28;20034;-71
2022/07/27 09:26:39;;;;;;;13.98;6.00;;;;;;;;;;5033063;28;20420;-71
2022/07/27 09:29:09;;;;;;;14.55;4.78;;;;;;;;;;5030556;28;20049;-71
2022/07/27 09:31:43;;;;;;;15.52;5.53;;;;;;;;;;5028785;28;20041;-71
2022/07/27 09:34:09;;;;;;;13.57;5.30;;;;;;;;;;5031104;28;20397;-71
2022/07/27 09:36:48;;;;;;;12.15;4.70;;;;;;;;;;5032183;28;20051;-70
2022/07/27 09:39:16;;;;;;;15.05;4.32;;;;;;;;;;5032819;28;20025;-71
2022/07/27 09:41:44;;;;;;;12.52;4.72;;;;;;;;;;5025732;28;20543;-71
2022/07/27 09:44:09;;;;;;;11.45;4.72;;;;;;;;;;5031823;28;20022;-71
2022/07/27 09:46:36;;;;;;;15.63;5.68;;;;;;;;;;5030723;28;20025;-71
2022/07/27 09:49:02;;;;;;;12.85;5.03;;;;;;;;;;5032965;28;20033;-71
2022/07/27 09:51:27;;;;;;;13.48;5.53;;;;;;;;;;5031946;28;20040;-71
2022/07/27 09:53:53;;;;;;;12.88;4.35;;;;;;;;;;5031437;28;20025;-71
2022/07/27 09:56:24;;;;;;;12.80;5.13;;;;;;;;;;5008997;28;20477;-71
2022/07/27 09:58:52;;;;;;;15.23;4.57;;;;;;;;;;5031526;28;20024;-71
2022/07/27 10:01:21;;;;;;;14.05;4.07;;;;;;;;;;5029009;28;20017;-71
2022/07/27 10:03:47;;;;;;;12.30;4.55;;;;;;;;;;5031536;28;20029;-71
2022/07/27 10:06:13;;;;;;;13.93;4.78;;;;;;;;;;5031482;28;20037;-71
2022/07/27 10:08:40;;;;;;;14.43;5.43;;;;;;;;;;5031217;28;20124;-71
2022/07/27 10:11:05;;;;;;;7.53;4.10;;;;;;;;;;5031750;28;20041;-71
2022/07/27 10:13:31;;;;;;;9.63;4.38;;;;;;;;;;5031520;28;20049;-72
2022/07/27 10:15:58;;;;;;;12.73;4.05;;;;;;;;;;5031100;28;20025;-71
2022/07/27 10:18:38;;;;;;;17.42;4.93;;;;;;;;;;5031403;28;20147;-71
2022/07/27 10:21:05;;;;;;;11.52;4.28;;;;;;;;;;5026162;28;20376;-71
2022/07/27 10:23:33;;;;;;;11.98;4.57;;;;;;;;;;5031761;28;20041;-71
2022/07/27 10:26:32;;;;;;;11.10;5.00;;;;;;;;;;5030761;28;20028;-71
2022/07/27 10:28:57;;;;;;;11.20;4.70;;;;;;;;;;4996772;28;20504;-71
2022/07/27 10:31:23;;;;;;;7.80;4.07;;;;;;;;;;5031765;28;20044;-71
2022/07/27 10:33:50;;;;;;;14.07;4.40;;;;;;;;;;5032792;28;20499;-72
2022/07/27 10:36:18;;;;;;;11.55;4.57;;;;;;;;;;5031542;28;20025;-72
2022/07/27 10:38:50;;;;;;;16.40;4.95;;;;;;;;;;5031807;28;20032;-71
2022/07/27 10:41:21;;;;;;;10.02;3.90;;;;;;;;;;5031809;28;20029;-71
2022/07/27 10:43:46;;;;;;;10.02;3.70;;;;;;;;;;5031796;28;20480;-71
2022/07/27 10:46:18;;;;;;;7.78;3.88;;;;;;;;;;5031313;28;20104;-71
2022/07/27 10:48:43;;;;;;;14.73;4.28;;;;;;;;;;5031635;28;20079;-71
2022/07/27 10:51:08;;;;;;;10.13;4.18;;;;;;;;;;5031598;28;20042;-71
2022/07/27 10:53:38;;;;;;;15.23;4.28;;;;;;;;;;5031613;28;20030;-71
2022/07/27 10:56:05;;;;;;;11.82;4.10;;;;;;;;;;5031498;28;20037;-71
2022/07/27 10:58:30;;;;;;;9.60;4.38;;;;;;;;;;5032021;28;20487;-71
2022/07/27 11:00:58;;;;;;;14.00;3.75;;;;;;;;;;5031695;28;20018;-72
2022/07/27 11:03:29;;;;;;;10.07;3.75;;;;;;;;;;5027736;28;20101;-72
2022/07/27 11:05:55;;;;;;;12.93;4.30;;;;;;;;;;5029947;28;20033;-71
2022/07/27 11:08:24;;;;;;;10.00;4.38;;;;;;;;;;5030699;28;20036;-72
2022/07/27 11:10:49;;;;;;;11.05;4.15;;;;;;;;;;5028825;28;20125;-71
2022/07/27 11:13:17;;;;;;;10.32;3.63;;;;;;;;;;5030371;28;20479;-72
2022/07/27 11:15:49;;;;;;;7.07;3.70;;;;;;;;;;5030308;28;20034;-71
2022/07/27 11:18:15;;;;;;;7.28;3.10;;;;;;;;;;5031054;28;20029;-71
2022/07/27 11:20:40;;;;;;;7.97;2.83;;;;;;;;;;5030521;28;20075;-72
2022/07/27 11:23:18;;;;;;;7.60;3.13;;;;;;;;;;5030128;28;20124;-72
2022/07/27 11:26:00;;;;;;;8.10;3.08;;;;;;;;;;5030698;28;20448;-71
2022/07/27 11:28:31;;;;;;;8.40;2.92;;;;;;;;;;5030514;28;20033;-71
2022/07/27 11:30:57;;;;;;;5.78;3.10;;;;;;;;;;5029590;28;20038;-72
2022/07/27 11:33:23;;;;;;;9.68;3.88;;;;;;;;;;5030557;28;20037;-72
2022/07/27 11:35:52;;;;;;;5.15;2.67;;;;;;;;;;5030810;28;20037;-72
2022/07/27 11:38:18;;;;;;;7.10;3.05;;;;;;;;;;5030518;28;20028;-72
2022/07/27 11:40:46;;;;;;;8.13;2.90;;;;;;;;;;5030043;28;20037;-71
2022/07/27 11:43:12;;;;;;;6.50;3.20;;;;;;;;;;5029572;28;20014;-71
2022/07/27 11:45:38;;;;;;;5.88;2.67;;;;;;;;;;5029916;28;20032;-72
2022/07/27 11:48:09;;;;;;;10.43;2.35;;;;;;;;;;5030086;28;20026;-71
2022/07/27 11:50:34;;;;;;;7.22;2.45;;;;;;;;;;5024837;28;20056;-71
2022/07/27 11:53:01;;;;;;;7.78;2.53;;;;;;;;;;5026528;28;20484;-71
2022/07/27 11:55:26;;;;;;;6.65;1.92;;;;;;;;;;5030089;28;20041;-72
2022/07/27 11:57:52;;;;;;;5.43;2.22;;;;;;;;;;5029060;28;20029;-72
2022/07/27 12:00:17;;;;;;;3.97;1.90;;;;;;;;;;5030110;28;20389;-72
2022/07/27 12:02:49;;;;;;;7.82;1.80;;;;;;;;;;5027988;28;20465;-71
2022/07/27 12:05:14;;;;;;;4.63;1.52;;;;;;;;;;5029684;28;20151;-72
2022/07/27 12:07:40;;;;;;;6.63;2.05;;;;;;;;;;5028152;28;20104;-72
2022/07/27 12:10:06;;;;;;;6.07;2.10;;;;;;;;;;5029968;28;20103;-72
2022/07/27 12:12:32;;;;;;;6.82;2.30;;;;;;;;;;5032457;28;20075;-71
2022/07/27 12:15:03;;;;;;;8.02;2.30;;;;;;;;;;5029187;28;20124;-71
2022/07/27 12:17:32;;;;;;;6.75;2.17;;;;;;;;;;5030098;28;20029;-72
2022/07/27 12:20:11;;;;;;;5.10;1.88;;;;;;;;;;5028407;28;20427;-71
2022/07/27 12:22:36;;;;;;;5.38;1.88;;;;;;;;;;5028934;28;20068;-72
2022/07/27 12:25:06;;;;;;;5.47;1.58;;;;;;;;;;5029344;28;20049;-71
2022/07/27 12:27:32;;;;;;;6.90;1.60;;;;;;;;;;5019153;28;20072;-72
2022/07/27 12:29:58;;;;;;;3.67;1.50;;;;;;;;;;5028804;28;20060;-72
2022/07/27 12:32:25;;;;;;;5.45;1.52;;;;;;;;;;5028593;28;20045;-71
2022/07/27 12:34:50;;;;;;;3.80;1.42;;;;;;;;;;5027613;28;20112;-71
2022/07/27 12:37:16;;;;;;;6.03;1.83;;;;;;;;;;5028192;28;20117;-71
2022/07/27 12:39:42;;;;;;;4.70;1.85;;;;;;;;;;5028220;28;20056;-72
2022/07/27 12:42:08;;;;;;;3.90;1.40;;;;;;;;;;5027074;28;20026;-71
2022/07/27 12:44:35;;;;;;;6.80;1.95;;;;;;;;;;5028873;28;20017;-71
2022/07/27 12:47:01;;;;;;;7.13;2.10;;;;;;;;;;5029425;28;20018;-71
2022/07/27 12:49:33;;;;;;;4.70;1.50;;;;;;;;;;5028987;28;20053;-71
2022/07/27 12:52:08;;;;;;;5.72;1.90;;;;;;;;;;5027293;28;20090;-71
2022/07/27 12:54:33;;;;;;;7.07;2.00;;;;;;;;;;5028833;28;20029;-72
2022/07/27 12:56:59;;;;;;;4.22;1.80;;;;;;;;;;5023115;28;20037;-72
2022/07/27 12:59:24;;;;;;;6.43;1.80;;;;;;;;;;5029433;28;20029;-72
2022/07/27 13:01:51;;;;;;;4.70;1.40;;;;;;;;;;5029575;28;20022;-71
2022/07/27 13:04:17;;;;;;;5.68;1.63;;;;;;;;;;5028947;28;20041;-71
2022/07/27 13:06:42;;;;;;;5.53;1.90;;;;;;;;;;5029220;28;20083;-71
2022/07/27 13:09:07;;;;;;;5.90;2.00;;;;;;;;;;5028556;28;20164;-71
2022/07/27 13:11:33;;;;;;;7.25;1.77;;;;;;;;;;5028138;28;20038;-72
2022/07/27 13:13:58;;;;;;;6.30;2.15;;;;;;;;;;5028417;28;20047;-71
2022/07/27 13:16:23;;;;;;;7.90;2.00;;;;;;;;;;5025235;28;20030;-71
2022/07/27 13:18:48;;;;;;;5.45;2.08;;;;;;;;;;5028726;28;20029;-71
2022/07/27 13:21:14;;;;;;;6.20;1.90;;;;;;;;;;5011487;28;20377;-71
2022/07/27 13:23:39;;;;;;;6.65;1.80;;;;;;;;;;5029576;28;20029;-71
2022/07/27 13:26:04;;;;;;;3.97;1.88;;;;;;;;;;5027122;28;20041;-71
2022/07/27 13:28:30;;;;;;;5.82;2.05;;;;;;;;;;5027914;28;20048;-71
2022/07/27 13:30:55;;;;;;;4.72;1.85;;;;;;;;;;5025449;28;20420;-71
2022/07/27 13:33:21;;;;;;;5.97;2.03;;;;;;;;;;5028434;28;20038;-71
2022/07/27 13:35:46;;;;;;;4.82;1.85;;;;;;;;;;5029109;28;20437;-71
2022/07/27 13:38:12;;;;;;;3.72;1.48;;;;;;;;;;5027964;28;20452;-71
2022/07/27 13:40:37;;;;;;;10.90;3.20;;;;;;;;;;5025550;28;20038;-71
2022/07/27 13:43:02;;;;;;;4.55;1.77;;;;;;;;;;5011588;28;20029;-71
2022/07/27 13:45:28;;;;;;;6.65;2.13;;;;;;;;;;5030822;28;20469;-71
2022/07/27 13:47:53;;;;;;;5.85;2.53;;;;;;;;;;5032174;28;20112;-71
2022/07/27 13:50:18;;;;;;;5.60;2.13;;;;;;;;;;5031303;28;20030;-71
2022/07/27 13:52:44;;;;;;;4.85;1.95;;;;;;;;;;5031683;28;20021;-71
2022/07/27 13:55:09;;;;;;;3.70;1.70;;;;;;;;;;5029828;28;20041;-71
2022/07/27 13:57:35;;;;;;;5.63;2.13;;;;;;;;;;5031542;28;20099;-71
2022/07/27 14:00:00;;;;;;;7.57;1.92;;;;;;;;;;5031966;28;20076;-71
2022/07/27 14:02:25;;;;;;;7.57;2.20;;;;;;;;;;5032841;28;20033;-71
2022/07/27 14:04:51;;;;;;;6.55;1.98;;;;;;;;;;5031695;28;21152;-71
2022/07/27 14:07:16;;;;;;;4.30;1.80;;;;;;;;;;5031610;28;20027;-71
2022/07/27 14:12:25;;;;;;;6.75;2.00;;;;;;;;;;5031793;28;20498;-71
2022/07/27 14:14:50;;;;;;;4.43;2.00;;;;;;;;;;5030902;28;20049;-71
2022/07/27 14:17:16;;;;;;;6.13;1.90;;;;;;;;;;5031399;28;20028;-71
2022/07/27 14:19:41;;;;;;;6.72;1.92;;;;;;;;;;5031665;28;20032;-71
2022/07/27 14:22:09;;;;;;;8.68;1.92;;;;;;;;;;5031584;28;20037;-71
2022/07/27 14:24:35;;;;;;;4.65;1.40;;;;;;;;;;5028595;28;20018;-71
2022/07/27 14:27:00;;;;;;;3.95;1.40;;;;;;;;;;5031140;28;20361;-71
2022/07/27 14:29:25;;;;;;;4.45;1.80;;;;;;;;;;5026850;28;20034;-71
2022/07/27 14:31:51;;;;;;;5.15;1.58;;;;;;;;;;5028178;28;20092;-71
2022/07/27 14:34:16;;;;;;;4.30;1.85;;;;;;;;;;5031039;28;20570;-71
2022/07/27 14:36:41;;;;;;;4.13;1.58;;;;;;;;;;5031986;28;20041;-71
2022/07/27 14:39:07;;;;;;;4.97;1.70;;;;;;;;;;5030885;28;20032;-72
2022/07/27 14:41:34;;;;;;;2.85;1.60;;;;;;;;;;5013899;28;20032;-71